メインページ
METAR-TAF:

METAR-TAF

空港 :

バンクーバー国際空港

バンクーバー, ブリティッシュコロンビア州, カナダ

緯度: 49-11N, 経度: 123-10W, 海抜: 3m

現時点の気象観測

当レポートは1時間6分前の17:00(UTC)に作成
西/北西の風 14kt
気温 20°C
湿度 73%
気圧 1018 hPa
視程: 48.3km
高度24000ftの雲はほとんどない

METAR: CYVR 161700Z 30014KT 30SM FEW240 20/15 A3005 RMK CS1 CS TR SLP176 DENSITY ALT 400FT

時間: 11:06 (18:06 UTC)

予報

当レポートは28分前の17:38(UTC)に作成
予報は16日の 18時(UTC)から 17日の 24時(UTC)まで有効
西/北西の風 12kt
視程: 10km
晴天
17日の 06時(UTC)から 17日の 08時(UTC)まで徐々に
の風 8kt
17日の 15時(UTC)から 17日の 17時(UTC)まで徐々に
西/南西の風 8kt

TAF: CYVR 161738Z 1618/1724 30012KT P6SM SKC BECMG 1706/1708 10008KT BECMG 1715/1717 24008KT RMK NXT FCST BY 162100Z

4,000以上の空港の気象観測と天気予報(METAR報とTAF報)

利用可能な観測所は地図上に黄色い丸と赤い丸で示す。

丸の上にカーソルを重ねると観測所名を参照できる。

次にクリックすると気象観測と天気予報を参照できる。

マップの切り替え:黒色「×」印の緑ボタンをクリックして拡大、「-」印の緑ボタンをクリックして縮小、緑色の三角印をクリックして隣りの地図に切り替え


METAR-TAF: